createdAt,value
2017-09-06T00:00:29.248Z,0
2017-09-06T00:01:38.098Z,0
2017-09-06T00:02:46.946Z,0
2017-09-06T00:03:55.794Z,0
2017-09-06T00:05:04.800Z,0
2017-09-06T00:06:13.975Z,0
2017-09-06T00:07:22.823Z,0
2017-09-06T00:08:31.670Z,0
2017-09-06T00:09:40.519Z,0
2017-09-06T00:10:49.518Z,0
2017-09-06T00:11:58.365Z,0
2017-09-06T00:13:07.210Z,0
2017-09-06T00:14:16.059Z,0
2017-09-06T00:15:24.908Z,0
2017-09-06T00:16:33.906Z,0
2017-09-06T00:17:42.756Z,0
2017-09-06T00:18:51.603Z,0
2017-09-06T00:20:00.451Z,0
2017-09-06T00:21:09.299Z,0
2017-09-06T00:22:18.631Z,0
2017-09-06T00:23:27.480Z,0
2017-09-06T00:24:36.326Z,0
2017-09-06T00:25:45.174Z,0
2017-09-06T00:26:54.022Z,0
2017-09-06T00:28:03.071Z,0
2017-09-06T00:29:11.920Z,0
2017-09-06T00:30:20.768Z,0
2017-09-06T00:31:29.616Z,0
2017-09-06T00:32:38.467Z,0
2017-09-06T00:33:47.463Z,0
2017-09-06T00:34:56.311Z,0
2017-09-06T00:36:05.160Z,0
2017-09-06T00:37:14.008Z,0
2017-09-06T00:38:22.856Z,0
2017-09-06T00:39:32.236Z,0
2017-09-06T00:40:41.415Z,0
2017-09-06T00:41:50.263Z,0
2017-09-06T00:42:59.112Z,0
2017-09-06T00:44:07.963Z,0
2017-09-06T00:45:17.011Z,0
2017-09-06T00:46:25.859Z,0
2017-09-06T00:47:34.708Z,0
2017-09-06T00:48:43.558Z,0
2017-09-06T00:49:52.407Z,0
2017-09-06T00:51:01.688Z,0
2017-09-06T00:52:10.535Z,0
2017-09-06T00:53:19.385Z,0
2017-09-06T00:54:28.236Z,0
2017-09-06T00:55:37.086Z,0
2017-09-06T00:56:45.933Z,0
2017-09-06T00:57:54.779Z,0
2017-09-06T00:59:03.624Z,0
2017-09-06T01:00:12.473Z,0
2017-09-06T01:01:21.320Z,0
2017-09-06T01:02:30.218Z,0
2017-09-06T01:03:39.065Z,0
2017-09-06T01:04:47.912Z,0
2017-09-06T01:05:56.758Z,0
2017-09-06T01:07:05.603Z,0
2017-09-06T01:08:14.699Z,0
2017-09-06T01:09:23.543Z,0
2017-09-06T01:10:32.392Z,0
2017-09-06T01:11:41.238Z,0
2017-09-06T01:12:50.083Z,0
2017-09-06T01:13:59.080Z,0
2017-09-06T01:15:08.258Z,0
2017-09-06T01:16:17.106Z,0
2017-09-06T01:17:25.953Z,0
2017-09-06T01:18:34.802Z,0
2017-09-06T01:19:43.747Z,0
2017-09-06T01:20:52.597Z,0
2017-09-06T01:22:01.445Z,0
2017-09-06T01:23:10.292Z,0
2017-09-06T01:24:19.138Z,0
2017-09-06T01:25:28.183Z,0
2017-09-06T01:26:37.031Z,0
2017-09-06T01:27:45.879Z,0
2017-09-06T01:28:54.727Z,0
2017-09-06T01:30:03.575Z,0
2017-09-06T01:31:12.572Z,0
2017-09-06T01:32:21.420Z,0
2017-09-06T01:33:30.265Z,0
2017-09-06T01:34:39.112Z,0
2017-09-06T01:35:47.956Z,0
2017-09-06T01:36:56.950Z,0
2017-09-06T01:38:05.797Z,0
2017-09-06T01:39:14.645Z,0
2017-09-06T01:40:23.492Z,0
2017-09-06T01:41:32.390Z,0
2017-09-06T01:42:41.385Z,0
2017-09-06T01:43:50.230Z,0
2017-09-06T01:44:59.075Z,0
2017-09-06T01:46:07.919Z,0
2017-09-06T01:47:17.095Z,0
2017-09-06T01:48:25.991Z,0
2017-09-06T01:49:34.836Z,0
2017-09-06T01:50:43.684Z,0
2017-09-06T01:51:52.528Z,0
2017-09-06T01:53:01.376Z,0
2017-09-06T01:54:10.269Z,0
2017-09-06T01:55:19.112Z,0
2017-09-06T01:56:27.959Z,0
2017-09-06T01:57:36.808Z,0
2017-09-06T01:58:45.653Z,0
2017-09-06T01:59:54.551Z,0
2017-09-06T02:01:03.406Z,0
2017-09-06T02:02:12.251Z,0
2017-09-06T02:03:21.096Z,0
2017-09-06T02:04:29.944Z,0
2017-09-06T02:05:39.038Z,0
2017-09-06T02:06:47.887Z,0
2017-09-06T02:07:56.736Z,0
2017-09-06T02:09:05.583Z,0
2017-09-06T02:10:14.428Z,0
2017-09-06T02:11:23.424Z,0
2017-09-06T02:12:32.268Z,0
2017-09-06T02:13:41.116Z,0
2017-09-06T02:14:49.961Z,0
2017-09-06T02:15:58.807Z,0
2017-09-06T02:17:07.703Z,0
2017-09-06T02:18:16.547Z,0
2017-09-06T02:19:25.395Z,0
2017-09-06T02:20:34.243Z,0
2017-09-06T02:21:43.419Z,0
2017-09-06T02:22:52.263Z,0
2017-09-06T02:24:01.109Z,0
2017-09-06T02:25:09.955Z,0
2017-09-06T02:26:18.799Z,0
2017-09-06T02:27:27.643Z,0
2017-09-06T02:28:36.639Z,0
2017-09-06T02:29:45.485Z,0
2017-09-06T02:30:54.332Z,0
2017-09-06T02:32:03.176Z,0
2017-09-06T02:33:12.021Z,0
2017-09-06T02:34:21.019Z,0
2017-09-06T02:35:29.862Z,0
2017-09-06T02:36:38.709Z,0
2017-09-06T02:37:47.554Z,0
2017-09-06T02:38:56.733Z,0
2017-09-06T02:40:05.958Z,0
2017-09-06T02:41:14.801Z,0
2017-09-06T02:42:23.647Z,0
2017-09-06T02:43:32.877Z,0
2017-09-06T02:44:41.722Z,0
2017-09-06T02:45:50.718Z,0
2017-09-06T02:46:59.565Z,0
2017-09-06T02:48:08.408Z,0
2017-09-06T02:49:17.255Z,0
2017-09-06T02:50:26.099Z,0
2017-09-06T02:51:34.994Z,0
2017-09-06T02:52:43.842Z,0
2017-09-06T02:53:52.689Z,0
2017-09-06T02:55:01.536Z,0
2017-09-06T02:56:10.384Z,0
2017-09-06T02:57:19.331Z,0
2017-09-06T02:58:28.512Z,0
2017-09-06T02:59:37.355Z,0
2017-09-06T03:00:46.198Z,0
2017-09-06T03:01:55.043Z,0
2017-09-06T03:03:04.092Z,0
2017-09-06T03:04:12.936Z,0
2017-09-06T03:05:21.782Z,0
2017-09-06T03:06:30.628Z,0
2017-09-06T03:07:39.477Z,0
2017-09-06T03:08:48.475Z,0
2017-09-06T03:09:57.321Z,0
2017-09-06T03:11:06.165Z,0
2017-09-06T03:12:15.012Z,0
2017-09-06T03:13:23.861Z,0
2017-09-06T03:14:32.763Z,0
2017-09-06T03:15:41.609Z,0
2017-09-06T03:16:50.456Z,0
2017-09-06T03:17:59.304Z,0
2017-09-06T03:19:08.152Z,0
2017-09-06T03:20:17.249Z,0
2017-09-06T03:21:26.096Z,0
2017-09-06T03:22:34.944Z,0
2017-09-06T03:23:44.158Z,0
2017-09-06T03:24:53.003Z,0
2017-09-06T03:26:01.899Z,0
2017-09-06T03:27:10.743Z,0
2017-09-06T03:28:19.591Z,0
2017-09-06T03:29:28.435Z,0
2017-09-06T03:30:37.291Z,0
2017-09-06T03:31:46.181Z,0
2017-09-06T03:32:55.032Z,0
2017-09-06T03:34:03.878Z,0
2017-09-06T03:35:12.727Z,0
2017-09-06T03:36:21.573Z,0
2017-09-06T03:37:30.905Z,0
2017-09-06T03:38:39.753Z,0
2017-09-06T03:39:48.599Z,0
2017-09-06T03:40:57.447Z,0
2017-09-06T03:42:06.303Z,0
2017-09-06T03:43:15.200Z,0
2017-09-06T03:44:24.050Z,0
2017-09-06T03:45:32.898Z,0
2017-09-06T03:46:41.746Z,0
2017-09-06T03:47:50.591Z,0
2017-09-06T03:48:59.440Z,0
2017-09-06T03:50:08.623Z,0
2017-09-06T03:51:17.467Z,0
2017-09-06T03:52:26.315Z,0
2017-09-06T03:53:35.161Z,0
2017-09-06T03:54:44.108Z,0
2017-09-06T03:55:52.957Z,0
2017-09-06T03:57:01.805Z,0
2017-09-06T03:58:10.652Z,0
2017-09-06T03:59:19.502Z,0
2017-09-06T04:00:28.399Z,0
2017-09-06T04:01:37.246Z,0
2017-09-06T04:02:46.096Z,0
2017-09-06T04:03:54.944Z,0
2017-09-06T04:05:03.790Z,0
2017-09-06T04:06:12.838Z,0
2017-09-06T04:07:21.687Z,0
2017-09-06T04:08:30.535Z,0
2017-09-06T04:09:39.382Z,0
2017-09-06T04:10:48.227Z,0
2017-09-06T04:11:57.072Z,0
2017-09-06T04:13:05.920Z,0
2017-09-06T04:14:14.766Z,0
2017-09-06T04:15:24.286Z,0
2017-09-06T04:16:33.135Z,0
2017-09-06T04:17:42.132Z,0
2017-09-06T04:18:50.978Z,0
2017-09-06T04:19:59.827Z,0
2017-09-06T04:21:08.673Z,4
2017-09-06T04:22:17.518Z,4
2017-09-06T04:23:26.417Z,4
2017-09-06T04:24:35.264Z,4
2017-09-06T04:25:44.116Z,4
2017-09-06T04:26:52.963Z,4
2017-09-06T04:28:01.810Z,8
2017-09-06T04:29:10.809Z,12
2017-09-06T04:30:19.655Z,12
2017-09-06T04:31:28.504Z,12
2017-09-06T04:32:37.352Z,16
2017-09-06T04:33:46.201Z,16
2017-09-06T04:34:55.050Z,20
2017-09-06T04:36:03.901Z,24
2017-09-06T04:37:12.748Z,28
2017-09-06T04:38:21.596Z,28
2017-09-06T04:39:30.443Z,36
2017-09-06T04:40:39.289Z,36
2017-09-06T04:41:48.136Z,44
2017-09-06T04:42:56.983Z,48
2017-09-06T04:44:05.832Z,56
2017-09-06T04:45:14.680Z,60
2017-09-06T04:46:23.527Z,64
2017-09-06T04:47:32.374Z,68
2017-09-06T04:48:41.221Z,72
2017-09-06T04:49:50.069Z,76
2017-09-06T04:50:58.917Z,80
2017-09-06T04:52:07.766Z,80
2017-09-06T04:53:16.613Z,84
2017-09-06T04:54:25.461Z,96
2017-09-06T04:55:34.308Z,104
2017-09-06T04:56:43.159Z,116
2017-09-06T04:57:52.007Z,128
2017-09-06T04:59:00.853Z,136
2017-09-06T05:00:09.805Z,140
2017-09-06T05:01:18.676Z,152
2017-09-06T05:02:27.533Z,176
2017-09-06T05:03:36.382Z,208
2017-09-06T05:04:45.231Z,264
2017-09-06T05:05:54.227Z,304
2017-09-06T05:07:03.076Z,336
2017-09-06T05:08:11.924Z,348
2017-09-06T05:09:20.774Z,368
2017-09-06T05:10:29.623Z,376
2017-09-06T05:11:38.572Z,392
2017-09-06T05:12:47.421Z,416
2017-09-06T05:13:56.269Z,440
2017-09-06T05:15:05.120Z,428
2017-09-06T05:16:13.971Z,348
2017-09-06T05:17:23.301Z,268
2017-09-06T05:18:32.149Z,220
2017-09-06T05:19:41.001Z,280
2017-09-06T05:20:49.850Z,424
2017-09-06T05:21:58.699Z,456
2017-09-06T05:23:07.699Z,460
2017-09-06T05:24:16.548Z,504
2017-09-06T05:25:25.395Z,488
2017-09-06T05:26:34.242Z,512
2017-09-06T05:27:43.104Z,548
2017-09-06T05:28:52.434Z,604
2017-09-06T05:30:01.284Z,756
2017-09-06T05:31:10.131Z,660
2017-09-06T05:32:18.982Z,724
2017-09-06T05:33:27.832Z,792
2017-09-06T05:34:36.782Z,876
2017-09-06T05:35:45.632Z,920
2017-09-06T05:36:54.480Z,968
2017-09-06T05:38:03.331Z,988
2017-09-06T05:39:12.176Z,972
2017-09-06T05:40:21.174Z,972
2017-09-06T05:41:30.023Z,924
2017-09-06T05:42:39.203Z,924
2017-09-06T05:43:48.049Z,920
2017-09-06T05:44:56.900Z,968
2017-09-06T05:46:05.899Z,1016
2017-09-06T05:47:14.750Z,1088
2017-09-06T05:48:23.599Z,1156
2017-09-06T05:49:32.462Z,1136
2017-09-06T05:50:41.318Z,1112
2017-09-06T05:51:50.330Z,1128
2017-09-06T05:52:59.346Z,1168
2017-09-06T05:54:08.714Z,1192
2017-09-06T05:55:17.608Z,1208
2017-09-06T05:56:26.748Z,1212
2017-09-06T05:57:35.690Z,1060
2017-09-06T05:58:44.539Z,1028
2017-09-06T05:59:53.385Z,1052
2017-09-06T06:01:02.233Z,1072
2017-09-06T06:02:11.082Z,1120
2017-09-06T06:03:19.981Z,1128
2017-09-06T06:04:28.848Z,1352
2017-09-06T06:05:37.696Z,1384
2017-09-06T06:06:46.542Z,1148
2017-09-06T06:07:55.390Z,1040
2017-09-06T06:09:04.340Z,1008
2017-09-06T06:10:13.189Z,900
2017-09-06T06:11:22.038Z,844
2017-09-06T06:12:30.889Z,1048
2017-09-06T06:13:39.739Z,1228
2017-09-06T06:14:48.790Z,1152
2017-09-06T06:15:57.640Z,1304
2017-09-06T06:17:06.490Z,1500
2017-09-06T06:18:16.002Z,1408
2017-09-06T06:19:24.850Z,1444
2017-09-06T06:20:33.746Z,1580
2017-09-06T06:21:42.592Z,1652
2017-09-06T06:22:51.439Z,1732
2017-09-06T06:24:00.285Z,1660
2017-09-06T06:25:09.129Z,1540
2017-09-06T06:26:18.126Z,1544
2017-09-06T06:27:27.302Z,1676
2017-09-06T06:28:36.149Z,1768
2017-09-06T06:29:44.994Z,1832
2017-09-06T06:30:53.841Z,1892
2017-09-06T06:32:02.737Z,1724
2017-09-06T06:33:11.589Z,1556
2017-09-06T06:34:20.764Z,1748
2017-09-06T06:35:29.609Z,1960
2017-09-06T06:36:38.455Z,1596
2017-09-06T06:37:47.450Z,1856
2017-09-06T06:38:56.296Z,1956
2017-09-06T06:40:05.146Z,1952
2017-09-06T06:41:14.001Z,2004
2017-09-06T06:42:23.174Z,2112
2017-09-06T06:43:32.122Z,2160
2017-09-06T06:44:40.969Z,2160
2017-09-06T06:45:49.814Z,2312
2017-09-06T06:46:58.661Z,2500
2017-09-06T06:48:07.506Z,2640
2017-09-06T06:49:16.501Z,2764
2017-09-06T06:50:25.348Z,2620
2017-09-06T06:51:34.194Z,2484
2017-09-06T06:52:43.043Z,2356
2017-09-06T06:53:51.890Z,2248
2017-09-06T06:55:00.888Z,2148
2017-09-06T06:56:10.074Z,1780
2017-09-06T06:57:18.918Z,1508
2017-09-06T06:58:27.763Z,1356
2017-09-06T06:59:36.611Z,1376
2017-09-06T07:00:45.458Z,1508
2017-09-06T07:01:54.308Z,1276
2017-09-06T07:03:03.156Z,1136
2017-09-06T07:04:12.004Z,1396
2017-09-06T07:05:20.850Z,1900
2017-09-06T07:06:29.696Z,2292
2017-09-06T07:07:38.543Z,2488
2017-09-06T07:08:47.394Z,2616
2017-09-06T07:09:56.237Z,2636
2017-09-06T07:11:05.081Z,2824
2017-09-06T07:12:14.078Z,3036
2017-09-06T07:13:22.927Z,3056
2017-09-06T07:14:31.775Z,3228
2017-09-06T07:15:40.622Z,3276
2017-09-06T07:16:49.798Z,3244
2017-09-06T07:17:58.643Z,3236
2017-09-06T07:19:07.494Z,2968
2017-09-06T07:20:16.341Z,2852
2017-09-06T07:21:25.188Z,2944
2017-09-06T07:22:34.039Z,2680
2017-09-06T07:23:42.885Z,1896
2017-09-06T07:24:51.733Z,1868
2017-09-06T07:26:00.578Z,2896
2017-09-06T07:27:09.427Z,3392
2017-09-06T07:28:18.275Z,2800
2017-09-06T07:29:27.122Z,2592
2017-09-06T07:30:35.973Z,2948
2017-09-06T07:31:44.819Z,3188
2017-09-06T07:32:53.997Z,3084
2017-09-06T07:34:02.844Z,2720
2017-09-06T07:35:11.842Z,2644
2017-09-06T07:36:20.690Z,2900
2017-09-06T07:37:29.541Z,3112
2017-09-06T07:38:38.389Z,3148
2017-09-06T07:39:47.238Z,3004
2017-09-06T07:40:56.237Z,3132
2017-09-06T07:42:05.084Z,2900
2017-09-06T07:43:13.933Z,2608
2017-09-06T07:44:22.790Z,2692
2017-09-06T07:45:31.636Z,2860
2017-09-06T07:46:40.637Z,2996
2017-09-06T07:47:49.484Z,3452
2017-09-06T07:48:58.671Z,4004
2017-09-06T07:50:07.517Z,4896
2017-09-06T07:51:16.361Z,5216
2017-09-06T07:52:25.460Z,5260
2017-09-06T07:53:34.312Z,5116
2017-09-06T07:54:43.162Z,5292
2017-09-06T07:55:52.012Z,5204
2017-09-06T07:57:00.863Z,5216
2017-09-06T07:58:10.059Z,5020
2017-09-06T07:59:18.906Z,4656
2017-09-06T08:00:27.757Z,4768
2017-09-06T08:01:36.603Z,4416
2017-09-06T08:02:45.452Z,3968
2017-09-06T08:03:54.352Z,2460
2017-09-06T08:05:03.205Z,2216
2017-09-06T08:06:12.055Z,2564
2017-09-06T08:07:20.905Z,2900
2017-09-06T08:08:29.752Z,2708
2017-09-06T08:09:38.750Z,2572
2017-09-06T08:10:47.597Z,1328
2017-09-06T08:11:56.785Z,1380
2017-09-06T08:13:05.633Z,1232
2017-09-06T08:14:14.481Z,1212
2017-09-06T08:15:23.327Z,2064
2017-09-06T08:16:32.178Z,1200
2017-09-06T08:17:41.047Z,3828
2017-09-06T08:18:50.239Z,3356
2017-09-06T08:19:59.083Z,3208
2017-09-06T08:21:08.033Z,4340
2017-09-06T08:22:16.885Z,2748
2017-09-06T08:23:25.732Z,2544
2017-09-06T08:24:34.588Z,2892
2017-09-06T08:25:43.437Z,3732
2017-09-06T08:26:52.407Z,3624
2017-09-06T08:28:01.266Z,3892
2017-09-06T08:29:10.114Z,4456
2017-09-06T08:30:18.962Z,4120
2017-09-06T08:31:27.810Z,4392
2017-09-06T08:32:36.815Z,2924
2017-09-06T08:33:45.663Z,1872
2017-09-06T08:34:54.511Z,1992
2017-09-06T08:36:03.360Z,1976
2017-09-06T08:37:12.209Z,2612
2017-09-06T08:38:21.205Z,3260
2017-09-06T08:39:30.054Z,1648
2017-09-06T08:40:38.900Z,2272
2017-09-06T08:41:47.752Z,2068
2017-09-06T08:42:56.930Z,1556
2017-09-06T08:44:05.928Z,1776
2017-09-06T08:45:14.776Z,1000
2017-09-06T08:46:23.624Z,1332
2017-09-06T08:47:32.472Z,1504
2017-09-06T08:48:41.320Z,1188
2017-09-06T08:49:50.266Z,2256
2017-09-06T08:50:59.114Z,2516
2017-09-06T08:52:07.961Z,2596
2017-09-06T08:53:17.158Z,2808
2017-09-06T08:54:26.005Z,3032
2017-09-06T08:55:34.900Z,3228
2017-09-06T08:56:43.744Z,3420
2017-09-06T08:57:52.925Z,5832
2017-09-06T08:59:01.773Z,6012
2017-09-06T09:00:10.620Z,6292
2017-09-06T09:01:19.517Z,6124
2017-09-06T09:02:28.366Z,5028
2017-09-06T09:03:37.214Z,3428
2017-09-06T09:04:46.064Z,3696
2017-09-06T09:05:54.913Z,5120
2017-09-06T09:07:03.810Z,5328
2017-09-06T09:08:12.659Z,4884
2017-09-06T09:09:21.507Z,5440
2017-09-06T09:10:30.355Z,5396
2017-09-06T09:11:39.211Z,5716
2017-09-06T09:12:48.362Z,7344
2017-09-06T09:13:57.208Z,6088
2017-09-06T09:15:06.058Z,5772
2017-09-06T09:16:14.909Z,3956
2017-09-06T09:17:23.758Z,3144
2017-09-06T09:18:32.808Z,3980
2017-09-06T09:19:41.656Z,3308
2017-09-06T09:20:50.506Z,3984
2017-09-06T09:21:59.354Z,4624
2017-09-06T09:23:08.202Z,4640
2017-09-06T09:24:17.202Z,5316
2017-09-06T09:25:26.053Z,5276
2017-09-06T09:26:34.904Z,3776
2017-09-06T09:27:43.755Z,5300
2017-09-06T09:28:52.605Z,4104
2017-09-06T09:30:01.505Z,4584
2017-09-06T09:31:10.358Z,3972
2017-09-06T09:32:19.207Z,2612
2017-09-06T09:33:28.057Z,2088
2017-09-06T09:34:36.905Z,2448
2017-09-06T09:35:45.852Z,2740
2017-09-06T09:36:54.716Z,4040
2017-09-06T09:38:03.902Z,2928
2017-09-06T09:39:12.749Z,4068
2017-09-06T09:40:21.595Z,3384
2017-09-06T09:41:30.654Z,3400
2017-09-06T09:42:39.492Z,3728
2017-09-06T09:43:48.343Z,4424
2017-09-06T09:44:57.522Z,5224
2017-09-06T09:46:06.370Z,5080
2017-09-06T09:47:15.369Z,4932
2017-09-06T09:48:24.217Z,4200
2017-09-06T09:49:33.067Z,3884
2017-09-06T09:50:41.917Z,3416
2017-09-06T09:51:51.109Z,2796
2017-09-06T09:53:00.054Z,2848
2017-09-06T09:54:08.903Z,3476
2017-09-06T09:55:17.751Z,3896
2017-09-06T09:56:26.598Z,4112
2017-09-06T09:57:35.443Z,3120
2017-09-06T09:58:44.340Z,3896
2017-09-06T09:59:53.196Z,3900
2017-09-06T10:01:02.373Z,5740
2017-09-06T10:02:11.221Z,4976
2017-09-06T10:03:20.069Z,4672
2017-09-06T10:04:28.967Z,4288
2017-09-06T10:05:37.815Z,3988
2017-09-06T10:06:46.663Z,4308
2017-09-06T10:07:55.510Z,5784
2017-09-06T10:09:04.355Z,4732
2017-09-06T10:10:13.253Z,3100
2017-09-06T10:11:22.100Z,2824
2017-09-06T10:12:30.947Z,2480
2017-09-06T10:13:39.795Z,2408
2017-09-06T10:14:48.644Z,2692
2017-09-06T10:15:57.642Z,3212
2017-09-06T10:17:06.489Z,2040
2017-09-06T10:18:15.336Z,1728
2017-09-06T10:19:24.185Z,1668
2017-09-06T10:20:33.365Z,2080
2017-09-06T10:21:42.362Z,3168
2017-09-06T10:22:51.209Z,3628
2017-09-06T10:24:00.054Z,3444
2017-09-06T10:25:08.912Z,3320
2017-09-06T10:26:17.746Z,3904
2017-09-06T10:27:26.645Z,4240
2017-09-06T10:28:35.493Z,4596
2017-09-06T10:29:44.343Z,4792
2017-09-06T10:30:53.201Z,5044
2017-09-06T10:32:02.049Z,4928
2017-09-06T10:33:10.902Z,4704
2017-09-06T10:34:19.743Z,5256
2017-09-06T10:35:28.589Z,5876
2017-09-06T10:36:37.435Z,5180
2017-09-06T10:37:46.284Z,5372
2017-09-06T10:38:55.183Z,5228
2017-09-06T10:40:04.030Z,5884
2017-09-06T10:41:12.877Z,7248
2017-09-06T10:42:21.758Z,7636
2017-09-06T10:43:30.570Z,5476
2017-09-06T10:44:39.565Z,5432
2017-09-06T10:45:48.413Z,6796
2017-09-06T10:46:57.260Z,7704
2017-09-06T10:48:06.106Z,5716
2017-09-06T10:49:14.952Z,4724
2017-09-06T10:50:24.231Z,4764
2017-09-06T10:51:33.078Z,5972
2017-09-06T10:52:41.927Z,8348
2017-09-06T10:53:50.779Z,9812
2017-09-06T10:54:59.627Z,10332
2017-09-06T10:56:08.783Z,5224
2017-09-06T10:57:17.624Z,4984
2017-09-06T10:58:26.473Z,2448
2017-09-06T10:59:35.655Z,3004
2017-09-06T11:00:44.546Z,5624
2017-09-06T11:01:53.500Z,4864
2017-09-06T11:03:02.349Z,4920
2017-09-06T11:04:11.524Z,5512
2017-09-06T11:05:20.373Z,5624
2017-09-06T11:06:29.246Z,6696
2017-09-06T11:07:38.398Z,6116
2017-09-06T11:08:47.260Z,9552
2017-09-06T11:09:56.107Z,6316
2017-09-06T11:11:04.956Z,7528
2017-09-06T11:12:13.803Z,5660
2017-09-06T11:13:23.006Z,10828
2017-09-06T11:14:31.857Z,5636
2017-09-06T11:15:40.746Z,6512
2017-09-06T11:16:49.628Z,7264
2017-09-06T11:17:58.474Z,4496
2017-09-06T11:19:07.519Z,3244
2017-09-06T11:20:16.366Z,4728
2017-09-06T11:21:25.215Z,3392
2017-09-06T11:22:34.061Z,2464
2017-09-06T11:23:42.908Z,5932
2017-09-06T11:24:51.833Z,3464
2017-09-06T11:26:00.737Z,4780
2017-09-06T11:27:09.594Z,3068
2017-09-06T11:28:18.440Z,2852
2017-09-06T11:29:27.291Z,2904
2017-09-06T11:30:36.312Z,4336
2017-09-06T11:31:45.523Z,2624
2017-09-06T11:32:54.369Z,2288
2017-09-06T11:34:03.217Z,2156
2017-09-06T11:35:12.068Z,2068
2017-09-06T11:36:21.014Z,1876
2017-09-06T11:37:29.914Z,4280
2017-09-06T11:38:38.762Z,4724
2017-09-06T11:39:47.621Z,6896
2017-09-06T11:40:56.601Z,7400
2017-09-06T11:42:05.548Z,10284
2017-09-06T11:43:14.427Z,11796
2017-09-06T11:44:23.277Z,12724
2017-09-06T11:45:32.129Z,9228
2017-09-06T11:46:40.980Z,8480
2017-09-06T11:47:50.014Z,6560
2017-09-06T11:48:59.415Z,5044
2017-09-06T11:50:08.296Z,3636
2017-09-06T11:51:17.146Z,3060
2017-09-06T11:52:26.661Z,2832
2017-09-06T11:53:35.581Z,3348
2017-09-06T11:54:44.428Z,3488
2017-09-06T11:55:53.276Z,3564
2017-09-06T11:57:02.125Z,6216
2017-09-06T11:58:11.003Z,5376
2017-09-06T11:59:49.647Z,4664
2017-09-06T12:00:58.566Z,4368
2017-09-06T12:02:07.518Z,5096
2017-09-06T12:03:16.642Z,8960
2017-09-06T12:04:25.815Z,5316
2017-09-06T12:05:35.536Z,5164
2017-09-06T12:06:44.646Z,6208
2017-09-06T12:07:53.583Z,4616
2017-09-06T12:09:02.562Z,3224
2017-09-06T12:10:12.261Z,2980
2017-09-06T12:11:22.794Z,2976
2017-09-06T12:12:32.902Z,6924
2017-09-06T12:13:41.867Z,6556
2017-09-06T12:14:50.890Z,8212
2017-09-06T12:15:59.879Z,11712
2017-09-06T12:17:09.543Z,13960
2017-09-06T12:18:18.445Z,13324
2017-09-06T12:19:27.699Z,14176
2017-09-06T12:20:37.553Z,14440
2017-09-06T12:21:47.729Z,13816
2017-09-06T12:22:56.746Z,14016
2017-09-06T12:24:05.733Z,11408
2017-09-06T12:25:15.362Z,11632
2017-09-06T12:26:24.606Z,13800
2017-09-06T12:27:33.807Z,13124
2017-09-06T12:28:43.333Z,12012
2017-09-06T12:29:52.353Z,12616
2017-09-06T12:31:01.313Z,10240
2017-09-06T12:32:10.483Z,10372
2017-09-06T12:33:19.676Z,12656
2017-09-06T12:34:28.770Z,12232
2017-09-06T12:35:37.855Z,12340
2017-09-06T12:36:47.018Z,12056
2017-09-06T12:37:55.969Z,12388
2017-09-06T12:39:04.923Z,12068
2017-09-06T12:40:15.266Z,9144
2017-09-06T12:41:24.504Z,10956
2017-09-06T12:42:33.352Z,14128
2017-09-06T12:43:42.201Z,15272
2017-09-06T12:44:51.059Z,16672
2017-09-06T12:45:59.912Z,17472
2017-09-06T12:47:08.914Z,15256
2017-09-06T12:48:17.772Z,16384
2017-09-06T12:49:26.621Z,19168
2017-09-06T12:50:35.473Z,24128
2017-09-06T12:51:44.323Z,26112
2017-09-06T12:52:53.225Z,13788
2017-09-06T12:54:02.094Z,9804
2017-09-06T12:55:11.275Z,10792
2017-09-06T12:56:20.131Z,9176
2017-09-06T12:57:29.000Z,11104
2017-09-06T12:58:38.206Z,10528
2017-09-06T12:59:47.059Z,11328
2017-09-06T13:00:55.918Z,15776
2017-09-06T13:02:04.772Z,19008
2017-09-06T13:03:13.629Z,15424
2017-09-06T13:04:22.537Z,7500
2017-09-06T13:05:31.428Z,12052
2017-09-06T13:06:40.298Z,14324
2017-09-06T13:07:49.149Z,9048
2017-09-06T13:08:58.000Z,13528
2017-09-06T13:10:07.155Z,12912
2017-09-06T13:11:16.015Z,11844
2017-09-06T13:12:25.210Z,10108
2017-09-06T13:13:34.114Z,19584
2017-09-06T13:14:43.312Z,16320
2017-09-06T13:15:52.535Z,17344
2017-09-06T13:17:01.441Z,14876
2017-09-06T13:18:10.363Z,16896
2017-09-06T13:19:19.311Z,17824
2017-09-06T13:20:28.260Z,9192
2017-09-06T13:21:37.483Z,9064
2017-09-06T13:22:46.399Z,8628
2017-09-06T13:23:55.290Z,9356
2017-09-06T13:25:04.189Z,12256
2017-09-06T13:26:13.111Z,13008
2017-09-06T13:27:21.971Z,9472
2017-09-06T13:28:30.913Z,13444
2017-09-06T13:29:39.802Z,11996
2017-09-06T13:30:48.709Z,12564
2017-09-06T13:31:57.570Z,15680
2017-09-06T13:33:06.448Z,11776
2017-09-06T13:34:15.316Z,6884
2017-09-06T13:35:24.188Z,12028
2017-09-06T13:36:33.077Z,14604
2017-09-06T13:37:41.952Z,11784
2017-09-06T13:38:51.187Z,7296
2017-09-06T13:40:00.079Z,19680
2017-09-06T13:41:08.942Z,16160
2017-09-06T13:42:17.823Z,14372
2017-09-06T13:43:26.761Z,22912
2017-09-06T13:44:35.817Z,13344
2017-09-06T13:45:44.690Z,13532
2017-09-06T13:46:53.554Z,11508
2017-09-06T13:48:02.421Z,11348
2017-09-06T13:49:11.273Z,11572
2017-09-06T13:50:20.181Z,16640
2017-09-06T13:51:29.089Z,22016
2017-09-06T13:52:37.962Z,20288
2017-09-06T13:53:46.854Z,9296
2017-09-06T13:54:55.752Z,24160
2017-09-06T13:56:04.917Z,21440
2017-09-06T13:57:13.798Z,11564
2017-09-06T13:58:22.660Z,27968
2017-09-06T13:59:31.612Z,23744
2017-09-06T14:00:40.465Z,20800
2017-09-06T14:01:49.473Z,44672
2017-09-06T14:02:58.340Z,42656
2017-09-06T14:04:07.222Z,59072
2017-09-06T14:05:16.109Z,6568
2017-09-06T14:06:25.003Z,9256
2017-09-06T14:07:34.114Z,16288
2017-09-06T14:08:43.002Z,13156
2017-09-06T14:09:51.889Z,7600
2017-09-06T14:11:00.776Z,6836
2017-09-06T14:12:09.670Z,9000
2017-09-06T14:13:18.646Z,10040
2017-09-06T14:14:27.572Z,8824
2017-09-06T14:15:36.471Z,53344
2017-09-06T14:16:45.452Z,54272
2017-09-06T14:17:54.746Z,15584
2017-09-06T14:19:03.973Z,9948
2017-09-06T14:20:12.896Z,11372
2017-09-06T14:21:21.842Z,16288
2017-09-06T14:22:30.767Z,8564
2017-09-06T14:23:39.707Z,6988
2017-09-06T14:24:48.743Z,7552
2017-09-06T14:25:57.684Z,7116
2017-09-06T14:27:06.630Z,6800
2017-09-06T14:28:15.568Z,6172
2017-09-06T14:29:24.814Z,6832
2017-09-06T14:30:33.822Z,6040
2017-09-06T14:31:42.770Z,5400
2017-09-06T14:32:51.708Z,4832
2017-09-06T14:34:00.620Z,4388
2017-09-06T14:35:09.534Z,4040
2017-09-06T14:36:18.458Z,4344
2017-09-06T14:37:27.334Z,3104
2017-09-06T14:38:36.220Z,3088
2017-09-06T14:39:45.139Z,2872
2017-09-06T14:40:54.081Z,2600
2017-09-06T14:42:03.084Z,2220
2017-09-06T14:43:11.970Z,2180
2017-09-06T14:44:20.877Z,2180
2017-09-06T14:45:29.764Z,2088
2017-09-06T14:46:38.653Z,2040
2017-09-06T14:47:47.572Z,2084
2017-09-06T14:48:56.471Z,2160
2017-09-06T14:50:05.367Z,2384
2017-09-06T14:51:14.269Z,2360
2017-09-06T14:52:23.200Z,2524
2017-09-06T14:53:32.158Z,2396
2017-09-06T14:54:41.059Z,2280
2017-09-06T14:55:49.910Z,2340
2017-09-06T14:56:58.762Z,1996
2017-09-06T14:58:07.644Z,1812
2017-09-06T14:59:16.651Z,1912
2017-09-06T15:00:25.577Z,1920
2017-09-06T15:01:34.526Z,1976
2017-09-06T15:02:43.457Z,1812
2017-09-06T15:03:52.380Z,1588
2017-09-06T15:05:01.464Z,1592
2017-09-06T15:06:10.363Z,1816
2017-09-06T15:07:19.235Z,2216
2017-09-06T15:08:28.113Z,2864
2017-09-06T15:09:37.011Z,3408
2017-09-06T15:10:45.973Z,3580
2017-09-06T15:11:54.882Z,4428
2017-09-06T15:13:03.823Z,4716
2017-09-06T15:14:12.706Z,4480
2017-09-06T15:15:21.575Z,4568
2017-09-06T15:16:30.692Z,4608
2017-09-06T15:17:39.590Z,4928
2017-09-06T15:18:48.458Z,5364
2017-09-06T15:19:57.318Z,5468
2017-09-06T15:21:06.205Z,5332
2017-09-06T15:22:15.172Z,5476
2017-09-06T15:23:24.061Z,5720
2017-09-06T15:24:32.943Z,6376
2017-09-06T15:25:41.845Z,6716
2017-09-06T15:26:50.728Z,7488
2017-09-06T15:27:59.789Z,8396
2017-09-06T15:29:09.049Z,9048
2017-09-06T15:30:17.962Z,9620
2017-09-06T15:31:26.880Z,10428
2017-09-06T15:32:35.812Z,12452
2017-09-06T15:33:44.922Z,13672
2017-09-06T15:34:54.137Z,10456
2017-09-06T15:36:02.985Z,11340
2017-09-06T15:37:11.833Z,8848
2017-09-06T15:38:20.681Z,7252
2017-09-06T15:39:29.529Z,4684
2017-09-06T15:40:38.376Z,5044
2017-09-06T15:41:47.225Z,11184
2017-09-06T15:42:56.071Z,29760
2017-09-06T15:44:05.250Z,10652